Time;durP1;ratioP1;P1;durP2;ratioP2;P2;SDS_P1;SDS_P2;PMS_P1;PMS_P2;Temp;Humidity;BMP_temperature;BMP_pressure;BME280_temperature;BME280_humidity;BME280_pressure;Samples;Min_cycle;Max_cycle;Signal;HPM_P1;HPM_P2
2020/12/04 00:07:17;;;;;;;25.50;11.95;;;0.00;99.90;;;;;;21079690;28;20443;-74
2020/12/04 00:17:18;;;;;;;27.48;12.95;;;0.00;99.90;;;;;;21079095;28;20089;-71
2020/12/04 00:27:19;;;;;;;27.20;12.90;;;-0.10;99.90;;;;;;21076419;28;20032;-73
2020/12/04 00:37:19;;;;;;;27.33;12.93;;;0.10;99.90;;;;;;21077219;28;20533;-73
2020/12/04 00:47:20;;;;;;;24.15;12.52;;;0.10;99.90;;;;;;21076661;28;20080;-72
2020/12/04 00:57:21;;;;;;;29.50;12.85;;;0.10;99.90;;;;;;21074472;28;20043;-73
2020/12/04 01:07:25;;;;;;;28.77;12.98;;;0.00;99.90;;;;;;21073957;28;20085;-73
2020/12/04 01:17:27;;;;;;;28.10;12.98;;;0.10;99.90;;;;;;21073243;28;20048;-74
2020/12/04 01:27:28;;;;;;;23.95;12.05;;;0.10;99.90;;;;;;21073930;28;20028;-72
2020/12/04 01:37:29;;;;;;;25.75;11.98;;;0.10;99.90;;;;;;21072482;28;20060;-73
2020/12/04 01:47:30;;;;;;;30.35;13.88;;;0.10;99.90;;;;;;21073230;28;20024;-73
2020/12/04 01:57:34;;;;;;;28.55;13.18;;;0.10;99.90;;;;;;21072696;28;20402;-73
2020/12/04 02:08:03;;;;;;;26.98;13.38;;;0.00;99.90;;;;;;21072537;28;20059;-73
2020/12/04 02:18:05;;;;;;;30.73;13.27;;;0.00;99.90;;;;;;21072020;28;20028;-73
2020/12/04 02:28:05;;;;;;;30.52;13.80;;;0.10;99.90;;;;;;21086580;22;20028;-81
2020/12/04 02:38:06;;;;;;;26.48;13.27;;;0.10;99.90;;;;;;20995742;28;20063;-81
2020/12/04 02:48:07;;;;;;;28.75;13.57;;;0.20;99.90;;;;;;21005995;28;20169;-81
2020/12/04 02:58:08;;;;;;;30.88;14.35;;;0.30;99.90;;;;;;20992357;28;20092;-82
2020/12/04 03:08:09;;;;;;;29.50;13.63;;;0.30;99.90;;;;;;21009233;28;20033;-81
2020/12/04 03:18:09;;;;;;;37.90;14.50;;;0.30;99.90;;;;;;21009062;28;20035;-82
2020/12/04 03:28:10;;;;;;;28.23;14.85;;;0.20;99.90;;;;;;21005058;28;20040;-81
2020/12/04 03:38:11;;;;;;;34.35;16.05;;;0.20;99.90;;;;;;21006369;28;20530;-82
2020/12/04 03:48:12;;;;;;;36.47;15.55;;;0.20;99.90;;;;;;21004654;28;20032;-81
2020/12/04 03:58:13;;;;;;;31.80;14.60;;;0.30;99.90;;;;;;21004831;28;20024;-81
2020/12/04 04:08:13;;;;;;;35.13;15.02;;;0.30;99.90;;;;;;21004561;28;20437;-81
2020/12/04 04:18:16;;;;;;;31.45;14.55;;;0.40;99.90;;;;;;21002527;28;20123;-81
2020/12/04 04:28:17;;;;;;;31.35;14.32;;;0.30;99.90;;;;;;21000766;28;20029;-81
2020/12/04 04:38:18;;;;;;;31.15;14.68;;;0.40;99.90;;;;;;21000734;28;20162;-81
2020/12/04 04:48:30;;;;;;;31.50;15.30;;;0.30;99.90;;;;;;21000241;28;20501;-82
2020/12/04 04:58:31;;;;;;;29.67;14.63;;;0.40;99.90;;;;;;20982062;28;20043;-81
2020/12/04 05:08:32;;;;;;;35.05;15.27;;;0.40;99.90;;;;;;20997880;28;20029;-81
2020/12/04 05:18:38;;;;;;;34.55;14.80;;;0.40;99.90;;;;;;20998077;28;20054;-82
2020/12/04 05:28:47;;;;;;;32.35;15.10;;;0.40;99.90;;;;;;20999133;28;20036;-81
2020/12/04 05:38:53;;;;;;;30.95;13.90;;;0.40;99.90;;;;;;21001430;28;20063;-81
2020/12/04 05:49:01;;;;;;;33.05;14.80;;;0.50;99.90;;;;;;20999546;28;20043;-82
2020/12/04 05:59:06;;;;;;;31.33;15.57;;;0.40;99.90;;;;;;21000963;28;20056;-81
2020/12/04 06:09:08;;;;;;;33.22;15.30;;;0.50;99.90;;;;;;21001746;28;20016;-81
2020/12/04 06:19:42;;;;;;;31.55;15.27;;;0.50;99.90;;;;;;20963504;28;20033;-81
2020/12/04 06:29:55;;;;;;;32.38;14.60;;;0.60;99.90;;;;;;20902122;28;20052;-82
2020/12/04 06:40:16;;;;;;;37.75;16.38;;;0.70;99.90;;;;;;20933493;28;20112;-82
2020/12/04 06:50:37;;;;;;;35.00;16.30;;;0.70;99.90;;;;;;20933608;28;20564;-83
2020/12/04 07:00:38;;;;;;;;;;;0.70;99.90;;;;;;20935934;28;20033;-82
2020/12/04 07:10:39;;;;;;;31.80;15.27;;;0.70;99.90;;;;;;20917926;28;20069;-82
2020/12/04 07:20:40;;;;;;;34.15;15.57;;;0.60;99.90;;;;;;20935700;28;20582;-82
2020/12/04 07:30:41;;;;;;;41.13;16.00;;;0.60;99.90;;;;;;20930765;28;20053;-83
2020/12/04 07:40:42;;;;;;;38.75;16.70;;;0.70;99.90;;;;;;20918270;28;20034;-82
2020/12/04 07:50:42;;;;;;;34.58;14.85;;;0.80;99.90;;;;;;20918346;28;20029;-82
2020/12/04 08:00:44;;;;;;;33.80;14.60;;;0.90;99.90;;;;;;20915250;28;20033;-81
2020/12/04 08:10:45;;;;;;;40.03;14.43;;;0.80;99.90;;;;;;20915928;28;20032;-82
2020/12/04 08:20:45;;;;;;;33.15;14.95;;;1.00;99.90;;;;;;20914070;28;20544;-82
2020/12/04 08:30:46;;;;;;;;;;;1.00;99.90;;;;;;20967590;22;20048;-72
2020/12/04 08:40:53;;;;;;;38.70;15.75;;;0.80;99.90;;;;;;21002141;28;20312;-73
2020/12/04 08:50:56;;;;;;;32.83;16.08;;;0.90;99.90;;;;;;21057540;28;20055;-73
2020/12/04 09:01:06;;;;;;;35.55;14.20;;;1.00;99.90;;;;;;21057230;28;20551;-73
2020/12/04 09:11:07;;;;;;;23.03;10.87;;;1.20;99.90;;;;;;21020588;28;20059;-72
2020/12/04 09:21:08;;;;;;;;;;;1.20;99.90;;;;;;20943912;28;20037;-72
2020/12/04 09:31:09;;;;;;;31.90;16.73;;;1.20;99.90;;;;;;20913741;28;20003;-73
2020/12/04 09:41:10;;;;;;;24.30;12.73;;;1.30;99.90;;;;;;20927124;28;20302;-72
2020/12/04 09:51:10;;;;;;;27.88;14.18;;;1.60;99.90;;;;;;20943103;28;20391;-72
2020/12/04 10:01:12;;;;;;;;;;;1.70;99.90;;;;;;20902365;28;20506;-73
2020/12/04 10:11:13;;;;;;;26.25;13.32;;;1.80;99.90;;;;;;20925415;28;20020;-72
2020/12/04 10:21:14;;;;;;;28.25;12.80;;;1.80;99.90;;;;;;20966900;28;20035;-73
2020/12/04 10:31:15;;;;;;;23.83;12.37;;;1.90;99.90;;;;;;20980719;28;20036;-73
2020/12/04 10:41:16;;;;;;;37.22;16.45;;;2.00;99.90;;;;;;20962417;28;20287;-72
2020/12/04 10:51:23;;;;;;;45.15;22.40;;;2.00;99.90;;;;;;20981463;28;20036;-72
2020/12/04 11:11:28;;;;;;;31.83;14.00;;;2.00;99.90;;;;;;20977728;28;20102;-73
2020/12/04 11:21:29;;;;;;;37.63;18.10;;;2.10;99.90;;;;;;20904403;28;20040;-72
2020/12/04 11:31:30;;;;;;;28.73;13.40;;;2.20;99.90;;;;;;20876043;28;20287;-72
2020/12/04 11:41:31;;;;;;;35.37;16.43;;;2.20;99.90;;;;;;20920661;28;20028;-72
2020/12/04 11:51:32;;;;;;;;;;;2.20;99.90;;;;;;20979794;28;20328;-73
2020/12/04 12:01:33;;;;;;;27.93;13.83;;;2.30;99.90;;;;;;21060522;28;19916;-72
2020/12/04 12:11:34;;;;;;;23.33;12.43;;;2.40;99.90;;;;;;21060055;28;21114;-74
2020/12/04 12:21:36;;;;;;;;;;;2.60;99.90;;;;;;21058535;28;20298;-73
2020/12/04 12:31:36;;;;;;;25.20;12.80;;;2.70;99.90;;;;;;21048266;28;19919;-73
2020/12/04 12:41:37;;;;;;;24.60;12.30;;;2.80;99.90;;;;;;20973942;28;20029;-72
2020/12/04 12:51:38;;;;;;;23.70;10.80;;;2.90;99.90;;;;;;20890978;28;20044;-72
2020/12/04 13:01:39;;;;;;;24.37;11.93;;;3.10;99.90;;;;;;20909567;28;20511;-72
2020/12/04 13:11:40;;;;;;;26.87;11.87;;;3.20;99.90;;;;;;20908869;28;20033;-72
2020/12/04 13:32:00;;;;;;;21.05;11.05;;;3.40;99.90;;;;;;20907650;28;20044;-72
2020/12/04 13:42:02;;;;;;;20.20;10.50;;;3.60;99.90;;;;;;20889880;28;20479;-72
2020/12/04 13:52:03;;;;;;;;;;;3.80;99.90;;;;;;20907129;28;20083;-72
2020/12/04 14:02:04;;;;;;;22.17;10.80;;;3.80;99.90;;;;;;20908471;28;20382;-73
2020/12/04 14:12:05;;;;;;;25.27;11.60;;;3.70;99.90;;;;;;20888421;28;20402;-72
2020/12/04 14:22:06;;;;;;;22.77;10.32;;;3.80;99.90;;;;;;20905714;28;20279;-73
2020/12/04 14:32:06;;;;;;;21.20;9.87;;;3.80;99.90;;;;;;20905252;28;20093;-71
2020/12/04 14:42:07;;;;;;;23.90;10.23;;;3.80;99.90;;;;;;20910291;28;20471;-72
2020/12/04 14:52:08;;;;;;;15.40;8.77;;;3.70;99.90;;;;;;20919594;28;20229;-73
2020/12/04 15:02:09;;;;;;;19.67;10.30;;;3.80;99.90;;;;;;20884018;28;20099;-72
2020/12/04 15:12:10;;;;;;;22.50;9.07;;;3.60;99.90;;;;;;20900560;28;20348;-72
2020/12/04 15:22:15;;;;;;;23.75;9.80;;;3.40;99.90;;;;;;20917194;28;20025;-72
2020/12/04 15:32:16;;;;;;;20.92;10.18;;;3.20;99.90;;;;;;20916272;28;20036;-72
2020/12/04 15:42:18;;;;;;;16.63;8.70;;;3.00;99.90;;;;;;20915811;28;20632;-72
2020/12/04 15:52:19;;;;;;;17.75;8.80;;;2.90;99.90;;;;;;20913908;28;20037;-72
2020/12/04 16:02:20;;;;;;;21.35;9.85;;;2.60;99.90;;;;;;20914092;28;20041;-72
2020/12/04 16:12:21;;;;;;;21.15;9.65;;;2.70;99.90;;;;;;20913348;28;20037;-72
2020/12/04 16:22:22;;;;;;;17.47;9.43;;;2.70;99.90;;;;;;20912605;28;20123;-73
2020/12/04 16:32:23;;;;;;;32.20;15.57;;;2.50;99.90;;;;;;20911514;28;20029;-72
2020/12/04 16:42:25;;;;;;;55.97;27.33;;;2.10;99.90;;;;;;20911001;28;20116;-72
2020/12/04 16:52:26;;;;;;;21.40;10.18;;;1.80;99.90;;;;;;20910189;28;20060;-72
2020/12/04 17:02:27;;;;;;;66.70;28.77;;;1.60;99.90;;;;;;20912442;28;20036;-72
2020/12/04 17:12:28;;;;;;;25.08;12.68;;;1.40;99.90;;;;;;20959473;28;20052;-72
2020/12/04 17:22:29;;;;;;;;;;;1.30;99.90;;;;;;20927677;28;20025;-72
2020/12/04 17:32:30;;;;;;;26.10;11.90;;;1.10;99.90;;;;;;20912006;28;19913;-72
2020/12/04 17:42:36;;;;;;;26.25;13.70;;;1.00;99.90;;;;;;20909419;28;20025;-72
2020/12/04 17:52:37;;;;;;;43.10;19.48;;;0.60;99.90;;;;;;20907027;28;20040;-74
2020/12/04 18:02:38;;;;;;;41.53;20.70;;;0.80;99.90;;;;;;20927006;28;20029;-72
2020/12/04 18:12:39;;;;;;;40.45;18.75;;;1.20;99.90;;;;;;20930738;28;20053;-72
2020/12/04 18:22:40;;;;;;;;;;;1.40;99.90;;;;;;20922565;28;20060;-73
2020/12/04 18:32:43;;;;;;;30.23;16.35;;;1.50;99.90;;;;;;20962134;28;20460;-73
2020/12/04 18:42:44;;;;;;;33.33;14.70;;;1.40;99.90;;;;;;20986094;28;20047;-72
2020/12/04 18:52:44;;;;;;;;;;;1.30;99.90;;;;;;20977707;28;20056;-73
2020/12/04 19:02:45;;;;;;;28.97;12.80;;;1.20;99.90;;;;;;21002049;28;19913;-74
2020/12/04 19:12:46;;;;;;;;;;;0.90;99.90;;;;;;20949290;28;20298;-74
2020/12/04 19:22:46;;;;;;;38.22;17.42;;;0.90;99.90;;;;;;20921952;28;19991;-74
2020/12/04 19:32:47;;;;;;;;;;;0.90;99.90;;;;;;20903596;28;20075;-74
2020/12/04 19:42:48;;;;;;;30.33;14.20;;;0.70;99.90;;;;;;20922281;28;19913;-74
2020/12/04 19:52:49;;;;;;;35.83;17.50;;;0.60;99.90;;;;;;20918683;28;20328;-74
2020/12/04 20:02:50;;;;;;;39.67;16.20;;;0.30;99.90;;;;;;20901435;28;20071;-73
2020/12/04 20:12:51;;;;;;;37.47;19.35;;;0.50;99.90;;;;;;20953030;28;20099;-74
2020/12/04 20:22:52;;;;;;;35.05;16.52;;;0.60;99.90;;;;;;20954274;28;20029;-74
2020/12/04 20:32:52;;;;;;;45.90;17.75;;;0.60;99.90;;;;;;20952298;28;20115;-75
2020/12/04 20:42:53;;;;;;;;;;;0.90;99.90;;;;;;20894626;28;20048;-74
2020/12/04 20:52:54;;;;;;;26.30;12.95;;;0.80;99.90;;;;;;20909522;28;19951;-74
2020/12/04 21:02:55;;;;;;;31.60;17.02;;;1.00;99.90;;;;;;20909049;28;20563;-74
2020/12/04 21:12:56;;;;;;;47.33;21.00;;;1.10;99.90;;;;;;20942918;28;20380;-74
2020/12/04 21:22:56;;;;;;;;;;;1.10;99.90;;;;;;20890987;28;20452;-74
2020/12/04 21:32:57;;;;;;;28.60;12.88;;;1.10;99.90;;;;;;20908723;28;20408;-74
2020/12/04 21:42:58;;;;;;;;;;;1.10;99.90;;;;;;21044615;23;20565;-80
2020/12/04 21:52:59;;;;;;;33.65;16.48;;;1.00;99.90;;;;;;21027779;28;19947;-81
2020/12/04 22:02:59;;;;;;;;;;;1.20;99.90;;;;;;20990823;28;20181;-81
2020/12/04 22:13:00;;;;;;;28.05;14.77;;;1.30;99.90;;;;;;20972694;28;19960;-80
2020/12/04 22:23:01;;;;;;;;;;;1.20;99.90;;;;;;20988820;28;20036;-81
2020/12/04 22:33:02;;;;;;;31.73;13.60;;;1.20;99.90;;;;;;21007995;28;19912;-81
2020/12/04 22:43:03;;;;;;;;;;;1.30;99.90;;;;;;21007597;28;20039;-81
2020/12/04 22:53:03;;;;;;;31.02;15.00;;;1.20;99.90;;;;;;20972886;28;19908;-81
2020/12/04 23:03:04;;;;;;;;;;;1.20;99.90;;;;;;21004677;28;20533;-81
2020/12/04 23:13:05;;;;;;;23.88;12.82;;;1.40;99.90;;;;;;20970096;28;19912;-80
2020/12/04 23:23:06;;;;;;;28.70;13.73;;;1.50;99.90;;;;;;21002535;28;20031;-81
2020/12/04 23:33:07;;;;;;;;;;;1.50;99.90;;;;;;21080129;28;20033;-81
2020/12/04 23:43:08;;;;;;;29.02;14.18;;;1.70;99.90;;;;;;21054291;28;20407;-80
2020/12/04 23:53:09;;;;;;;;;;;1.80;99.90;;;;;;21076149;28;20044;-81
